Time;durP1;ratioP1;P1;durP2;ratioP2;P2;SDS_P1;SDS_P2;PMS_P1;PMS_P2;Temp;Humidity;BMP_temperature;BMP_pressure;BME280_temperature;BME280_humidity;BME280_pressure;Samples;Min_cycle;Max_cycle;Signal;HPM_P1;HPM_P2
2023/05/28 00:00:21;;;;;;;;;;;;;;;16.22;100.00;96233.63;5027446;28;19935;-89
2023/05/28 00:02:50;;;;;;;;;;;;;;;16.19;100.00;96231.44;5016985;28;19925;-91
2023/05/28 00:05:16;;;;;;;;;;;;;;;16.23;100.00;96232.56;5022537;28;19939;-90
2023/05/28 00:07:44;;;;;;;;;;;;;;;16.24;100.00;96231.47;5030733;28;19933;-91
2023/05/28 00:10:11;;;;;;;;;;;;;;;16.24;100.00;96228.75;5029441;28;20077;-90
2023/05/28 00:12:38;;;;;;;;;;;;;;;16.26;100.00;96224.63;5033369;28;19929;-90
2023/05/28 00:15:05;;;;;;;;;;;;;;;16.27;100.00;96228.19;5030969;28;19936;-90
2023/05/28 00:17:32;;;;;;;;;;;;;;;16.26;100.00;96218.38;5029304;28;19988;-90
2023/05/28 00:20:01;;;;;;;;;;;;;;;16.25;100.00;96222.19;5029442;28;19925;-90
2023/05/28 00:22:28;;;;;;;;;;;;;;;16.12;100.00;96219.97;5021931;28;19948;-91
2023/05/28 00:24:55;;;;;;;;;;;;;;;15.94;100.00;96217.75;5027832;28;20011;-90
2023/05/28 00:27:21;;;;;;;;;;;;;;;15.84;100.00;96218.53;5029218;28;20016;-89
2023/05/28 00:29:49;;;;;;;;;;;;;;;15.80;100.00;96220.97;5033195;28;19947;-90
2023/05/28 00:32:16;;;;;;;;;;;;;;;15.79;100.00;96219.34;5024813;28;20421;-89
2023/05/28 00:34:42;;;;;;;;;;;;;;;15.82;100.00;96221.50;5037172;28;19932;-90
2023/05/28 00:37:11;;;;;;;;;;;;;;;15.88;100.00;96220.47;5045539;28;19925;-90
2023/05/28 00:39:37;;;;;;;;;;;;;;;15.92;100.00;96214.47;5033343;28;19926;-90
2023/05/28 00:42:07;;;;;;;;;;;;;;;15.94;100.00;96213.13;5029210;28;19929;-90
2023/05/28 00:44:35;;;;;;;;;;;;;;;15.89;100.00;96215.84;5025559;28;19932;-91
2023/05/28 00:47:03;;;;;;;;;;;;;;;15.91;100.00;96212.84;5020434;28;19968;-89
2023/05/28 00:49:30;;;;;;;;;;;;;;;15.84;100.00;96221.25;5042021;28;19981;-90
2023/05/28 00:51:57;;;;;;;;;;;;;;;15.75;100.00;96215.50;5021694;28;19947;-90
2023/05/28 00:54:26;;;;;;;;;;;;;;;15.64;100.00;96213.00;5028629;28;19925;-89
2023/05/28 00:56:54;;;;;;;;;;;;;;;15.52;100.00;96216.72;5028154;28;19925;-90
2023/05/28 00:59:21;;;;;;;;;;;;;;;15.45;100.00;96215.31;5025803;28;19980;-91
2023/05/28 01:01:49;;;;;;;;;;;;;;;15.38;100.00;96214.75;5039021;28;19957;-89
2023/05/28 01:04:16;;;;;;;;;;;;;;;15.39;100.00;96217.22;5028549;28;19925;-90
2023/05/28 01:06:43;;;;;;;;;;;;;;;15.41;100.00;96214.19;5036699;28;19924;-90
2023/05/28 01:09:10;;;;;;;;;;;;;;;15.31;100.00;96214.16;5030631;28;19924;-89
2023/05/28 01:11:40;;;;;;;;;;;;;;;15.27;100.00;96213.88;5025978;28;20019;-90
2023/05/28 01:14:08;;;;;;;;;;;;;;;15.29;100.00;96210.88;5031299;28;19947;-89
2023/05/28 01:16:35;;;;;;;;;;;;;;;15.26;100.00;96209.50;5041779;28;19925;-90
2023/05/28 01:19:09;;;;;;;;;;;;;;;15.14;100.00;96212.41;5039220;28;19924;-89
2023/05/28 01:21:42;;;;;;;;;;;;;;;15.08;100.00;96210.75;5018472;28;19926;-91
2023/05/28 01:24:10;;;;;;;;;;;;;;;15.09;100.00;96206.94;5028549;28;19932;-92
2023/05/28 01:26:37;;;;;;;;;;;;;;;15.10;100.00;96197.72;5032281;28;19932;-90
2023/05/28 01:29:14;;;;;;;;;;;;;;;15.02;100.00;96200.09;5029393;28;19925;-91
2023/05/28 01:31:41;;;;;;;;;;;;;;;14.89;100.00;96195.09;5051766;28;19983;-90
2023/05/28 01:34:08;;;;;;;;;;;;;;;14.73;100.00;96192.28;5031749;28;19925;-90
2023/05/28 01:36:37;;;;;;;;;;;;;;;14.67;100.00;96187.06;5030625;28;19932;-90
2023/05/28 01:39:04;;;;;;;;;;;;;;;14.70;100.00;96181.13;5020467;28;19925;-89
2023/05/28 01:41:33;;;;;;;;;;;;;;;14.72;100.00;96176.22;5019777;28;19925;-91
2023/05/28 01:44:00;;;;;;;;;;;;;;;14.68;100.00;96180.56;5049054;28;19964;-90
2023/05/28 01:46:27;;;;;;;;;;;;;;;14.63;100.00;96177.81;5026708;28;19925;-89
2023/05/28 01:48:55;;;;;;;;;;;;;;;14.66;100.00;96182.72;5030597;28;19929;-91
2023/05/28 01:51:22;;;;;;;;;;;;;;;14.71;100.00;96180.06;5031852;28;19936;-90
2023/05/28 01:53:49;;;;;;;;;;;;;;;14.69;100.00;96180.31;5030188;28;20023;-89
2023/05/28 01:56:16;;;;;;;;;;;;;;;14.60;100.00;96173.72;5029318;28;19925;-90
2023/05/28 01:58:44;;;;;;;;;;;;;;;14.48;100.00;96172.22;5033756;28;19924;-90
2023/05/28 02:01:15;;;;;;;;;;;;;;;14.45;100.00;96162.72;5042909;28;20015;-90
2023/05/28 02:03:43;;;;;;;;;;;;;;;14.51;100.00;96167.13;5029033;28;20019;-90
2023/05/28 02:06:10;;;;;;;;;;;;;;;14.60;100.00;96170.16;5023741;28;19929;-90
2023/05/28 02:08:37;;;;;;;;;;;;;;;14.66;100.00;96164.50;5024516;28;19948;-89
2023/05/28 02:11:05;;;;;;;;;;;;;;;14.75;100.00;96167.56;5020172;28;20211;-90
2023/05/28 02:13:31;;;;;;;;;;;;;;;14.81;100.00;96168.41;5027804;28;19925;-89
2023/05/28 02:16:01;;;;;;;;;;;;;;;14.89;100.00;96166.03;5028110;28;19939;-90
2023/05/28 02:18:27;;;;;;;;;;;;;;;14.90;100.00;96170.38;5021571;28;19925;-90
2023/05/28 02:20:54;;;;;;;;;;;;;;;14.93;100.00;96171.78;5026585;28;19971;-91
2023/05/28 02:23:21;;;;;;;;;;;;;;;14.96;100.00;96177.50;5019780;28;19925;-90
2023/05/28 02:25:48;;;;;;;;;;;;;;;14.99;100.00;96168.81;5024358;28;19933;-89
2023/05/28 02:28:15;;;;;;;;;;;;;;;15.02;100.00;96171.03;5033668;28;20024;-90
2023/05/28 02:30:41;;;;;;;;;;;;;;;15.03;100.00;96172.66;5022089;28;19925;-89
2023/05/28 02:33:10;;;;;;;;;;;;;;;14.96;100.00;96180.22;5025296;28;19925;-89
2023/05/28 02:35:38;;;;;;;;;;;;;;;14.85;100.00;96178.50;5039270;28;19929;-90
2023/05/28 02:38:05;;;;;;;;;;;;;;;14.74;100.00;96172.19;5026924;28;19936;-90
2023/05/28 02:40:33;;;;;;;;;;;;;;;14.74;100.00;96172.19;5035066;28;19929;-89
2023/05/28 02:43:01;;;;;;;;;;;;;;;14.70;100.00;96170.25;5026986;28;19925;-88
2023/05/28 02:45:28;;;;;;;;;;;;;;;14.69;100.00;96174.06;5027305;28;19964;-90
2023/05/28 02:47:55;;;;;;;;;;;;;;;14.66;100.00;96180.00;5027509;28;19967;-89
2023/05/28 02:50:25;;;;;;;;;;;;;;;14.55;100.00;96172.81;5035106;28;19948;-90
2023/05/28 02:53:08;;;;;;;;;;;;;;;14.51;100.00;96169.00;5025384;28;19948;-90
2023/05/28 02:55:35;;;;;;;;;;;;;;;14.50;100.00;96175.50;5039936;28;19928;-89
2023/05/28 02:58:02;;;;;;;;;;;;;;;14.46;100.00;96175.19;5015787;28;19929;-90
2023/05/28 03:00:29;;;;;;;;;;;;;;;14.43;100.00;96185.78;5024232;28;19931;-89
2023/05/28 03:02:58;;;;;;;;;;;;;;;14.36;100.00;96175.09;5019763;28;19925;-89
2023/05/28 03:05:28;;;;;;;;;;;;;;;14.35;100.00;96185.16;5032831;28;19933;-90
2023/05/28 03:07:55;;;;;;;;;;;;;;;14.27;100.00;96188.34;5026363;28;19926;-89
2023/05/28 03:10:22;;;;;;;;;;;;;;;14.20;100.00;96184.19;5042874;28;19932;-88
2023/05/28 03:12:49;;;;;;;;;;;;;;;14.22;100.00;96188.28;5025716;28;19931;-90
2023/05/28 03:15:16;;;;;;;;;;;;;;;14.25;100.00;96193.19;5023922;28;19925;-90
2023/05/28 03:17:43;;;;;;;;;;;;;;;14.28;100.00;96195.41;5029842;28;19925;-89
2023/05/28 03:20:11;;;;;;;;;;;;;;;14.32;100.00;96196.53;5029969;28;19924;-89
2023/05/28 03:22:40;;;;;;;;;;;;;;;14.27;100.00;96188.34;5048484;28;19929;-89
2023/05/28 03:25:08;;;;;;;;;;;;;;;14.18;100.00;96191.78;5035124;28;19925;-88
2023/05/28 03:27:36;;;;;;;;;;;;;;;14.06;100.00;96191.91;5039099;28;19941;-89
2023/05/28 03:30:04;;;;;;;;;;;;;;;13.98;100.00;96187.75;5023476;28;19936;-89
2023/05/28 03:32:41;;;;;;;;;;;;;;;13.99;100.00;96185.88;5024590;28;19996;-89
2023/05/28 03:35:09;;;;;;;;;;;;;;;13.99;100.00;96194.00;5028552;28;19925;-89
2023/05/28 03:37:36;;;;;;;;;;;;;;;13.91;100.00;96194.47;5032192;28;19924;-90
2023/05/28 03:40:05;;;;;;;;;;;;;;;13.91;100.00;96191.75;5031580;28;19998;-89
2023/05/28 03:42:32;;;;;;;;;;;;;;;13.94;100.00;96196.69;5020521;28;19928;-90
2023/05/28 03:44:58;;;;;;;;;;;;;;;13.91;100.00;96189.03;5033148;28;19924;-90
2023/05/28 03:47:27;;;;;;;;;;;;;;;13.94;100.00;96199.41;5033081;28;19970;-90
2023/05/28 03:49:54;;;;;;;;;;;;;;;13.99;100.00;96188.59;5027715;28;19924;-91
2023/05/28 03:52:21;;;;;;;;;;;;;;;14.02;100.00;96196.22;5027698;28;19925;-91
2023/05/28 03:54:52;;;;;;;;;;;;;;;14.00;100.00;96196.47;5028372;28;20019;-89
2023/05/28 03:57:20;;;;;;;;;;;;;;;13.87;100.00;96194.16;5031596;28;19931;-90
2023/05/28 03:59:47;;;;;;;;;;;;;;;13.70;100.00;96187.97;5040089;28;19979;-90
2023/05/28 04:02:14;;;;;;;;;;;;;;;13.66;100.00;96189.56;5021215;28;19925;-91
2023/05/28 04:04:41;;;;;;;;;;;;;;;13.72;100.00;96188.56;5015686;28;19932;-89
2023/05/28 04:07:09;;;;;;;;;;;;;;;13.78;100.00;96192.16;5008386;28;19925;-91
2023/05/28 04:09:37;;;;;;;;;;;;;;;13.71;100.00;96188.81;5008451;28;19952;-90
2023/05/28 04:12:05;;;;;;;;;;;;;;;13.66;100.00;96192.28;5000899;28;19952;-89
2023/05/28 04:14:34;;;;;;;;;;;;;;;13.62;100.00;96191.97;5018054;28;19925;-89
2023/05/28 04:17:01;;;;;;;;;;;;;;;13.68;100.00;96197.47;5015808;28;19925;-90
2023/05/28 04:19:27;;;;;;;;;;;;;;;13.68;100.00;96197.47;5015192;28;19925;-90
2023/05/28 04:21:54;;;;;;;;;;;;;;;13.64;100.00;96195.25;5020384;28;19975;-89
2023/05/28 04:24:21;;;;;;;;;;;;;;;13.58;100.00;96193.56;5013283;28;19953;-90
2023/05/28 04:26:48;;;;;;;;;;;;;;;13.63;100.00;96203.63;5010805;28;19928;-90
2023/05/28 04:29:15;;;;;;;;;;;;;;;13.70;100.00;96195.28;5010334;28;19932;-92
2023/05/28 04:31:44;;;;;;;;;;;;;;;13.72;100.00;96201.31;5006523;28;19930;-90
2023/05/28 04:34:11;;;;;;;;;;;;;;;13.65;100.00;96198.78;5014629;28;19932;-90
2023/05/28 04:36:38;;;;;;;;;;;;;;;13.55;100.00;96199.47;5016428;28;19976;-90
2023/05/28 04:39:05;;;;;;;;;;;;;;;13.49;100.00;96196.97;5014430;28;19968;-89
2023/05/28 04:41:32;;;;;;;;;;;;;;;13.54;100.00;96208.69;5015050;28;19965;-88
2023/05/28 04:43:59;;;;;;;;;;;;;;;13.58;100.00;96207.13;5012836;28;19929;-89
2023/05/28 04:46:29;;;;;;;;;;;;;;;13.59;100.00;96202.50;5013183;28;19925;-89
2023/05/28 04:48:57;;;;;;;;;;;;;;;13.58;100.00;96209.84;5012881;28;19929;-89
2023/05/28 04:51:24;;;;;;;;;;;;;;;13.58;100.00;96207.13;5014567;28;19984;-90
2023/05/28 04:53:51;;;;;;;;;;;;;;;13.60;100.00;96210.41;5006692;28;19926;-89
2023/05/28 04:56:18;;;;;;;;;;;;;;;13.64;100.00;96210.69;5005204;28;19926;-90
2023/05/28 04:58:46;;;;;;;;;;;;;;;13.68;100.00;96208.31;5023063;28;19929;-90
2023/05/28 05:01:14;;;;;;;;;;;;;;;13.71;100.00;96213.22;5015536;28;19925;-89
2023/05/28 05:03:42;;;;;;;;;;;;;;;13.71;100.00;96213.22;5009027;28;19932;-90
2023/05/28 05:06:11;;;;;;;;;;;;;;;13.71;100.00;96215.94;5029359;28;19932;-88
2023/05/28 05:08:38;;;;;;;;;;;;;;;13.72;100.00;96212.16;5029011;28;20018;-91
2023/05/28 05:11:06;;;;;;;;;;;;;;;13.74;100.00;96216.25;5034665;28;19925;-89
2023/05/28 05:13:33;;;;;;;;;;;;;;;13.81;100.00;96216.06;5027838;28;19986;-89
2023/05/28 05:16:00;;;;;;;;;;;;;;;13.79;100.00;96219.03;5019128;28;19926;-90
2023/05/28 05:18:27;;;;;;;;;;;;;;;13.85;100.00;96219.91;5035716;28;19931;-89
2023/05/28 05:20:55;;;;;;;;;;;;;;;13.77;100.00;96206.81;5030645;28;19931;-90
2023/05/28 05:23:23;;;;;;;;;;;;;;;13.79;100.00;96208.16;5028819;28;19960;-90
2023/05/28 05:25:50;;;;;;;;;;;;;;;13.83;100.00;96214.75;5030672;28;19925;-89
2023/05/28 05:28:18;;;;;;;;;;;;;;;13.89;100.00;96202.88;5029948;28;19932;-90
2023/05/28 05:30:45;;;;;;;;;;;;;;;14.00;100.00;96209.22;5029707;28;19938;-90
2023/05/28 05:33:12;;;;;;;;;;;;;;;14.06;100.00;96201.94;5021338;28;19925;-91
2023/05/28 05:35:57;;;;;;;;;;;;;;;14.03;100.00;96206.81;5052962;28;19931;-89
2023/05/28 05:38:59;;;;;;;;;;;;;;;14.02;100.00;96209.81;5023351;28;20016;-90
2023/05/28 05:41:45;;;;;;;;;;;;;;;14.12;100.00;96211.81;5048134;28;20075;-89
2023/05/28 05:44:18;;;;;;;;;;;;;;;14.19;100.00;96207.00;5049096;28;19954;-90
2023/05/28 05:46:45;;;;;;;;;;;;;;;14.28;100.00;96213.59;5054943;28;19932;-90
2023/05/28 05:49:12;;;;;;;;;;;;;;;14.30;100.00;96206.81;5030536;28;19924;-89
2023/05/28 05:51:40;;;;;;;;;;;;;;;14.39;100.00;96216.16;5031278;28;19936;-91
2023/05/28 05:54:08;;;;;;;;;;;;;;;14.46;100.00;96217.88;5047209;28;19937;-89
2023/05/28 05:56:37;;;;;;;;;;;;;;;14.51;100.00;96216.00;5030047;28;19925;-88
2023/05/28 05:59:03;;;;;;;;;;;;;;;14.56;100.00;96207.91;5035678;28;20028;-90
2023/05/28 06:01:31;;;;;;;;;;;;;;;14.63;100.00;96207.72;5040071;28;19956;-89
2023/05/28 06:03:58;;;;;;;;;;;;;;;14.59;100.00;96201.13;5042809;28;19930;-90
2023/05/28 06:06:36;;;;;;;;;;;;;;;14.64;100.00;96214.75;5047864;28;19940;-90
2023/05/28 06:09:16;;;;;;;;;;;;;;;14.73;100.00;96214.03;5047631;28;19931;-90
2023/05/28 06:11:49;;;;;;;;;;;;;;;14.82;100.00;96206.22;5030284;28;20113;-90
2023/05/28 06:14:16;;;;;;;;;;;;;;;14.93;100.00;96216.09;5023027;28;19953;-90
2023/05/28 06:16:43;;;;;;;;;;;;;;;15.04;100.00;96215.09;5048480;28;19925;-90
2023/05/28 06:19:10;;;;;;;;;;;;;;;15.15;100.00;96215.94;5031932;28;19924;-92
2023/05/28 06:21:38;;;;;;;;;;;;;;;15.20;100.00;96220.63;5027004;28;19929;-90
2023/05/28 06:24:06;;;;;;;;;;;;;;;15.27;100.00;96207.59;5029910;28;19925;-90
2023/05/28 06:26:35;;;;;;;;;;;;;;;15.35;100.00;96212.53;5030140;28;19979;-89
2023/05/28 06:29:02;;;;;;;;;;;;;;;15.40;100.00;96207.94;5026371;28;19924;-90
2023/05/28 06:31:30;;;;;;;;;;;;;;;15.38;100.00;96210.13;5024196;28;19987;-90
2023/05/28 06:33:57;;;;;;;;;;;;;;;15.40;100.00;96201.69;5026366;28;20056;-92
2023/05/28 06:36:23;;;;;;;;;;;;;;;15.41;100.00;96200.59;5029765;28;19925;-90
2023/05/28 06:38:50;;;;;;;;;;;;;;;15.48;100.00;96209.38;5031503;28;19924;-90
2023/05/28 06:41:17;;;;;;;;;;;;;;;15.53;100.00;96206.66;5045779;28;19925;-90
2023/05/28 06:43:49;;;;;;;;;;;;;;;15.62;100.00;96204.28;5029737;28;19988;-89
2023/05/28 06:46:34;;;;;;;;;;;;;;;15.66;100.00;96208.09;5046709;28;19947;-90
2023/05/28 06:49:01;;;;;;;;;;;;;;;15.77;100.00;96198.91;5027631;28;19925;-91
2023/05/28 06:51:28;;;;;;;;;;;;;;;15.81;100.00;96200.00;5023791;28;19928;-90
2023/05/28 06:53:55;;;;;;;;;;;;;;;15.85;100.00;96196.47;5036603;28;19955;-89
2023/05/28 06:56:27;;;;;;;;;;;;;;;15.94;100.00;96202.22;5020397;28;20002;-90
2023/05/28 06:59:04;;;;;;;;;;;;;;;16.06;100.00;96199.28;5038287;28;19929;-89
2023/05/28 07:01:57;;;;;;;;;;;;;;;16.17;100.00;96211.81;5028785;28;20791;-90
2023/05/28 07:04:49;;;;;;;;;;;;;;;16.26;100.00;96204.75;5015215;28;20008;-90
2023/05/28 07:07:19;;;;;;;;;;;;;;;16.31;100.00;96195.78;5033721;28;19925;-90
2023/05/28 07:09:46;;;;;;;;;;;;;;;16.31;100.00;96190.34;5017391;28;19950;-89
2023/05/28 07:12:17;;;;;;;;;;;;;;;16.37;100.00;96195.53;5020691;28;20004;-90
2023/05/28 07:14:49;;;;;;;;;;;;;;;16.42;100.00;96200.97;5025360;28;19929;-89
2023/05/28 07:17:17;;;;;;;;;;;;;;;16.82;100.00;96204.84;5018362;28;19932;-90
2023/05/28 07:19:44;;;;;;;;;;;;;;;17.32;100.00;96201.25;5035776;28;19936;-90
2023/05/28 07:22:13;;;;;;;;;;;;;;;17.78;100.00;96196.47;5036905;28;19999;-90
2023/05/28 07:24:41;;;;;;;;;;;;;;;18.08;100.00;96199.06;5015541;28;19936;-89
2023/05/28 07:27:08;;;;;;;;;;;;;;;18.29;100.00;96198.97;5035236;28;19925;-89
2023/05/28 07:29:35;;;;;;;;;;;;;;;18.53;100.00;96194.44;5026720;28;19933;-89
2023/05/28 07:32:04;;;;;;;;;;;;;;;18.73;100.00;96193.47;5029480;28;19935;-90
2023/05/28 07:34:34;;;;;;;;;;;;;;;18.92;100.00;96197.16;5041761;28;19924;-90
2023/05/28 07:37:02;;;;;;;;;;;;;;;19.16;100.00;96199.94;5024137;28;19925;-90
2023/05/28 07:39:29;;;;;;;;;;;;;;;19.35;100.00;96200.03;5024519;28;19937;-90
2023/05/28 07:41:56;;;;;;;;;;;;;;;19.45;100.00;96198.03;5037821;28;19924;-89
2023/05/28 07:44:27;;;;;;;;;;;;;;;19.32;100.00;96195.13;5028573;28;20218;-89
2023/05/28 07:46:54;;;;;;;;;;;;;;;19.19;100.00;96196.66;5031311;28;19928;-90
2023/05/28 07:49:33;;;;;;;;;;;;;;;18.92;100.00;96194.44;5025283;28;19925;-91
2023/05/28 07:52:00;;;;;;;;;;;;;;;18.72;100.00;96195.41;5026549;28;19925;-91
2023/05/28 07:54:31;;;;;;;;;;;;;;;18.79;100.00;96193.19;5022709;28;19924;-91
2023/05/28 07:57:00;;;;;;;;;;;;;;;19.05;100.00;96190.22;5018960;28;19932;-90
2023/05/28 07:59:31;;;;;;;;;;;;;;;19.26;100.00;96197.13;5021337;28;19967;-89
2023/05/28 08:01:59;;;;;;;;;;;;;;;19.34;100.00;96192.94;5018534;28;20084;-90
2023/05/28 08:04:25;;;;;;;;;;;;;;;19.42;100.00;96184.91;5025160;28;19935;-89
2023/05/28 08:06:53;;;;;;;;;;;;;;;19.59;100.00;96185.28;5032135;28;19949;-89
2023/05/28 08:09:20;;;;;;;;;;;;;;;19.69;100.00;96187.09;5020278;28;20014;-90
2023/05/28 08:11:52;;;;;;;;;;;;;;;19.83;100.00;96179.78;5026435;28;19925;-91
2023/05/28 08:14:20;;;;;;;;;;;;;;;19.98;100.00;96182.38;5038075;28;19929;-90
2023/05/28 08:16:49;;;;;;;;;;;;;;;20.13;100.00;96175.88;5026874;28;19925;-90
2023/05/28 08:19:25;;;;;;;;;;;;;;;20.12;100.00;96176.97;5027516;28;19951;-89
2023/05/28 08:21:56;;;;;;;;;;;;;;;20.12;100.00;96176.97;5025374;28;19930;-89
2023/05/28 08:24:23;;;;;;;;;;;;;;;20.31;100.00;96174.25;5028132;28;20023;-89
2023/05/28 08:26:54;;;;;;;;;;;;;;;20.34;99.96;96165.44;5025332;28;19932;-90
2023/05/28 08:29:23;;;;;;;;;;;;;;;20.68;100.00;96165.19;5016276;28;20153;-89
2023/05/28 08:31:58;;;;;;;;;;;;;;;20.83;98.92;96164.16;5027825;28;19936;-92
2023/05/28 08:34:33;;;;;;;;;;;;;;;20.73;99.24;96154.16;5026052;28;19925;-89
2023/05/28 08:37:02;;;;;;;;;;;;;;;20.78;99.55;96159.53;5025507;28;19944;-89
2023/05/28 08:40:07;;;;;;;;;;;;;;;21.04;98.73;96155.25;5027876;28;19931;-92
2023/05/28 08:42:38;;;;;;;;;;;;;;;21.09;95.96;96151.63;5034300;28;19929;-91
2023/05/28 08:45:06;;;;;;;;;;;;;;;21.08;95.06;96156.28;5029845;28;19933;-91
2023/05/28 08:47:34;;;;;;;;;;;;;;;21.19;94.38;96154.19;5026722;28;19925;-91
2023/05/28 08:50:08;;;;;;;;;;;;;;;21.19;94.62;96153.38;5034791;28;19989;-93
2023/05/28 08:52:48;;;;;;;;;;;;;;;21.25;92.97;96149.44;5026024;28;19925;-91
2023/05/28 08:55:16;;;;;;;;;;;;;;;21.24;94.10;96142.31;5046983;28;19929;-92
2023/05/28 08:57:48;;;;;;;;;;;;;;;21.26;93.45;96140.09;5030390;28;19929;-92
2023/05/28 09:00:15;;;;;;;;;;;;;;;21.34;93.25;96139.38;5035695;28;19956;-93
2023/05/28 09:03:07;;;;;;;;;;;;;;;21.52;93.14;96143.97;5024074;28;19936;-90
2023/05/28 09:05:36;;;;;;;;;;;;;;;21.64;90.53;96136.03;5034138;28;19932;-92
2023/05/28 09:08:06;;;;;;;;;;;;;;;21.65;89.11;96137.66;5033967;28;20112;-92
2023/05/28 09:10:33;;;;;;;;;;;;;;;21.42;89.86;96135.94;5025212;28;19934;-93
2023/05/28 09:13:00;;;;;;;;;;;;;;;21.37;89.64;96136.00;5028308;28;19925;-91
2023/05/28 09:15:31;;;;;;;;;;;;;;;21.46;90.68;96129.50;5026311;28;19931;-92
2023/05/28 09:18:00;;;;;;;;;;;;;;;21.57;90.90;96132.06;5019813;28;19934;-92
2023/05/28 09:20:28;;;;;;;;;;;;;;;21.61;90.82;96136.63;5030203;28;19928;-92
2023/05/28 09:22:59;;;;;;;;;;;;;;;21.67;91.68;96129.13;5029602;28;19926;-91
2023/05/28 09:25:48;;;;;;;;;;;;;;;21.71;90.01;96130.13;5017961;28;19926;-94
2023/05/28 09:28:18;;;;;;;;;;;;;;;21.52;88.85;96127.50;5020673;28;19929;-91
2023/05/28 09:30:45;;;;;;;;;;;;;;;21.39;93.62;96122.81;5028559;28;19926;-91
2023/05/28 09:33:12;;;;;;;;;;;;;;;21.17;92.84;96118.00;5027516;28;19933;-92
2023/05/28 09:35:39;;;;;;;;;;;;;;;21.19;94.17;96113.00;5030798;28;19946;-91
2023/05/28 09:38:07;;;;;;;;;;;;;;;21.45;93.52;96116.06;5030889;28;19931;-92
2023/05/28 09:40:38;;;;;;;;;;;;;;;21.64;91.11;96119.53;5027256;28;19925;-93
2023/05/28 09:43:07;;;;;;;;;;;;;;;21.71;93.27;96108.94;5028049;28;19948;-92
2023/05/28 09:45:45;;;;;;;;;;;;;;;21.67;89.31;96112.63;5028551;28;20040;-92
2023/05/28 09:48:15;;;;;;;;;;;;;;;21.42;90.88;96108.47;5026828;28;19933;-93
2023/05/28 09:50:42;;;;;;;;;;;;;;;21.36;92.28;96106.91;5025917;28;19926;-93
2023/05/28 09:53:10;;;;;;;;;;;;;;;21.27;93.65;96111.47;5041565;28;19929;-91
2023/05/28 09:55:37;;;;;;;;;;;;;;;21.14;94.23;96100.16;5028253;28;20027;-91
2023/05/28 09:58:05;;;;;;;;;;;;;;;20.98;93.58;96104.31;5024598;28;19928;-91
2023/05/28 10:00:37;;;;;;;;;;;;;;;21.28;93.22;96110.38;5026559;28;19925;-92
2023/05/28 10:03:11;;;;;;;;;;;;;;;21.67;91.42;96112.63;5029519;28;19925;-92
2023/05/28 10:05:40;;;;;;;;;;;;;;;21.74;91.52;96104.78;5030755;28;19925;-91
2023/05/28 10:08:08;;;;;;;;;;;;;;;21.65;93.43;96117.63;5050138;28;19972;-93
2023/05/28 10:10:38;;;;;;;;;;;;;;;21.55;92.78;96104.88;5030447;28;19929;-92
2023/05/28 10:13:09;;;;;;;;;;;;;;;21.53;91.16;96105.19;5033560;28;20073;-92
2023/05/28 10:15:38;;;;;;;;;;;;;;;21.41;92.35;96098.59;5024260;28;19925;-91
2023/05/28 10:18:06;;;;;;;;;;;;;;;21.58;93.27;96098.78;5025047;28;19929;-92
2023/05/28 10:20:33;;;;;;;;;;;;;;;21.59;91.52;96105.09;5022860;28;19932;-91
2023/05/28 10:26:02;;;;;;;;;;;;;;;21.41;90.78;96107.66;5044549;28;19913;-91
2023/05/28 10:28:30;;;;;;;;;;;;;;;21.36;91.63;96106.91;5023014;28;19929;-90
2023/05/28 10:31:03;;;;;;;;;;;;;;;21.39;92.53;96109.06;5035234;28;19925;-91
2023/05/28 10:33:31;;;;;;;;;;;;;;;21.30;91.11;96102.66;5026224;28;19952;-91
2023/05/28 10:36:01;;;;;;;;;;;;;;;21.33;91.23;96100.13;5041369;28;19955;-92
2023/05/28 10:38:28;;;;;;;;;;;;;;;21.40;92.23;96110.69;5031927;28;19933;-91
2023/05/28 10:41:00;;;;;;;;;;;;;;;21.27;90.39;96103.25;5029005;28;19972;-91
2023/05/28 10:43:45;;;;;;;;;;;;;;;21.22;93.22;96100.59;5028036;28;19925;-92
2023/05/28 10:46:15;;;;;;;;;;;;;;;21.15;92.45;96095.50;5029001;28;19932;-92
2023/05/28 10:48:42;;;;;;;;;;;;;;;21.22;92.34;96100.59;5028616;28;20027;-92
2023/05/28 10:51:12;;;;;;;;;;;;;;;21.11;92.89;96094.47;5029773;28;19957;-91
2023/05/28 10:53:39;;;;;;;;;;;;;;;21.10;92.39;96093.66;5030238;28;19929;-91
2023/05/28 10:56:06;;;;;;;;;;;;;;;21.23;92.36;96086.59;5034041;28;19924;-92
2023/05/28 10:58:34;;;;;;;;;;;;;;;21.31;91.33;96085.06;5032669;28;19967;-91
2023/05/28 11:01:10;;;;;;;;;;;;;;;21.34;92.06;96081.72;5026257;28;19925;-91
2023/05/28 11:03:42;;;;;;;;;;;;;;;21.33;91.28;96075.41;5030745;28;19979;-92
2023/05/28 11:06:10;;;;;;;;;;;;;;;21.68;89.97;96082.09;5027952;28;19933;-91
2023/05/28 11:08:44;;;;;;;;;;;;;;;21.82;86.88;96082.88;5028783;28;19947;-91
2023/05/28 11:11:18;;;;;;;;;;;;;;;22.03;86.50;96085.22;5031189;28;19925;-92
2023/05/28 11:13:45;;;;;;;;;;;;;;;22.33;84.34;96076.25;5028239;28;19964;-93
2023/05/28 11:16:13;;;;;;;;;;;;;;;22.55;84.48;96075.44;5021129;28;19948;-92
2023/05/28 11:18:59;;;;;;;;;;;;;;;22.74;81.20;96072.50;5021713;28;19925;-93
2023/05/28 11:21:26;;;;;;;;;;;;;;;22.64;81.89;96079.06;5027671;28;19925;-92
2023/05/28 11:23:59;;;;;;;;;;;;;;;22.41;82.94;96078.25;5019187;28;19960;-92
2023/05/28 11:26:27;;;;;;;;;;;;;;;22.38;85.18;96065.13;5029832;28;20031;-92
2023/05/28 11:28:54;;;;;;;;;;;;;;;22.37;84.22;96068.22;5032983;28;19925;-93
2023/05/28 11:31:21;;;;;;;;;;;;;;;22.26;84.26;96070.38;5025241;28;19987;-91
2023/05/28 11:33:52;;;;;;;;;;;;;;;22.30;85.45;96060.38;5041590;28;19929;-92
2023/05/28 11:36:19;;;;;;;;;;;;;;;22.34;84.91;96066.06;5031354;28;19960;-92
2023/05/28 11:38:46;;;;;;;;;;;;;;;22.35;84.22;96074.00;5029712;28;20011;-92
2023/05/28 11:41:13;;;;;;;;;;;;;;;22.56;83.96;96068.81;5045387;28;19925;-92
2023/05/28 11:43:39;;;;;;;;;;;;;;;22.54;83.15;96065.59;5033389;28;19936;-92
2023/05/28 11:46:06;;;;;;;;;;;;;;;22.50;82.35;96059.88;5055108;28;19931;-92
2023/05/28 11:48:37;;;;;;;;;;;;;;;22.62;83.76;96056.56;5055051;28;19953;-92
2023/05/28 11:51:07;;;;;;;;;;;;;;;22.79;83.13;96064.16;5041536;28;19925;-92
2023/05/28 11:53:41;;;;;;;;;;;;;;;23.18;80.85;96055.09;5042520;28;19932;-92
2023/05/28 11:56:09;;;;;;;;;;;;;;;23.36;79.57;96049.34;5034817;28;19925;-92
2023/05/28 11:58:40;;;;;;;;;;;;;;;23.37;79.50;96048.22;5032303;28;19968;-92
2023/05/28 12:01:07;;;;;;;;;;;;;;;23.59;77.97;96041.00;5039497;28;20023;-91
2023/05/28 12:03:34;;;;;;;;;;;;;;;23.86;75.99;96042.69;5041289;28;19932;-91
2023/05/28 12:06:02;;;;;;;;;;;;;;;24.06;74.68;96040.13;5040462;28;19940;-92
2023/05/28 12:08:31;;;;;;;;;;;;;;;24.20;74.77;96028.94;5048098;28;19947;-92
2023/05/28 12:11:02;;;;;;;;;;;;;;;24.26;73.76;96035.09;5048573;28;19956;-92
2023/05/28 12:13:33;;;;;;;;;;;;;;;24.45;73.48;96033.66;5045523;28;19929;-92
2023/05/28 12:16:07;;;;;;;;;;;;;;;24.54;71.76;96032.81;5037665;28;19929;-92
2023/05/28 12:18:34;;;;;;;;;;;;;;;24.39;72.69;96025.88;5043167;28;19925;-92
2023/05/28 12:21:01;;;;;;;;;;;;;;;24.52;72.32;96019.34;5044924;28;19925;-92
2023/05/28 12:23:30;;;;;;;;;;;;;;;24.70;70.46;96020.94;5045775;28;19926;-92
2023/05/28 12:25:57;;;;;;;;;;;;;;;24.77;69.07;96020.44;5042572;28;19964;-92
2023/05/28 12:28:24;;;;;;;;;;;;;;;24.83;67.84;96019.94;5041510;28;19940;-92
2023/05/28 12:30:52;;;;;;;;;;;;;;;25.01;69.34;96004.13;5039048;28;19932;-92
2023/05/28 12:33:20;;;;;;;;;;;;;;;25.17;69.04;96004.41;5044044;28;19933;-92
2023/05/28 12:35:53;;;;;;;;;;;;;;;25.11;68.13;96008.47;5043779;28;19925;-92
2023/05/28 12:38:20;;;;;;;;;;;;;;;24.98;70.49;96004.00;5058960;28;20009;-91
2023/05/28 12:40:49;;;;;;;;;;;;;;;24.74;68.66;96004.53;5047433;28;19929;-92
2023/05/28 12:43:16;;;;;;;;;;;;;;;24.70;70.24;96003.56;5040140;28;19937;-91
2023/05/28 12:45:43;;;;;;;;;;;;;;;24.72;70.13;96004.06;5067023;28;19925;-92
2023/05/28 12:48:10;;;;;;;;;;;;;;;24.51;69.07;96001.16;5046161;28;20028;-92
2023/05/28 12:50:37;;;;;;;;;;;;;;;24.49;68.20;95995.19;5041202;28;19933;-91
2023/05/28 12:53:07;;;;;;;;;;;;;;;24.78;69.77;95984.22;5045822;28;19935;-92